sensor_id;sensor_type;location;lat;lon;timestamp;pressure;altitude;pressure_sealevel;temperature;humidity
21111;BME280;10713;51.912;4.494;2024-03-08T00:00:18;101853.56;;;3.54;100.00
21111;BME280;10713;51.912;4.494;2024-03-08T00:02:48;101851.84;;;3.53;100.00
21111;BME280;10713;51.912;4.494;2024-03-08T00:05:15;101857.06;;;3.53;100.00
21111;BME280;10713;51.912;4.494;2024-03-08T00:07:42;101850.06;;;3.49;100.00
21111;BME280;10713;51.912;4.494;2024-03-08T00:10:10;101850.06;;;3.49;100.00
21111;BME280;10713;51.912;4.494;2024-03-08T00:12:40;101850.94;;;3.48;100.00
21111;BME280;10713;51.912;4.494;2024-03-08T00:15:13;101837.00;;;3.47;100.00
21111;BME280;10713;51.912;4.494;2024-03-08T00:17:40;101843.97;;;3.47;100.00
21111;BME280;10713;51.912;4.494;2024-03-08T00:20:06;101840.47;;;3.45;100.00
21111;BME280;10713;51.912;4.494;2024-03-08T00:22:37;101826.56;;;3.46;100.00
21111;BME280;10713;51.912;4.494;2024-03-08T00:25:04;101831.78;;;3.46;100.00
21111;BME280;10713;51.912;4.494;2024-03-08T00:27:30;101839.59;;;3.46;100.00
21111;BME280;10713;51.912;4.494;2024-03-08T00:29:56;101821.34;;;3.44;100.00
21111;BME280;10713;51.912;4.494;2024-03-08T00:32:21;101818.72;;;3.46;100.00
21111;BME280;10713;51.912;4.494;2024-03-08T00:34:49;101821.31;;;3.43;100.00
21111;BME280;10713;51.912;4.494;2024-03-08T00:37:17;101828.31;;;3.44;100.00
21111;BME280;10713;51.912;4.494;2024-03-08T00:39:42;101814.34;;;3.42;100.00
21111;BME280;10713;51.912;4.494;2024-03-08T00:42:08;101810.00;;;3.42;100.00
21111;BME280;10713;51.912;4.494;2024-03-08T00:44:33;101816.09;;;3.41;100.00
21111;BME280;10713;51.912;4.494;2024-03-08T00:46:58;101801.28;;;3.40;100.00
21111;BME280;10713;51.912;4.494;2024-03-08T00:49:24;101820.44;;;3.41;100.00
21111;BME280;10713;51.912;4.494;2024-03-08T00:51:50;101815.22;;;3.39;100.00
21111;BME280;10713;51.912;4.494;2024-03-08T00:54:15;101809.13;;;3.40;100.00
21111;BME280;10713;51.912;4.494;2024-03-08T00:56:42;101806.50;;;3.37;100.00
21111;BME280;10713;51.912;4.494;2024-03-08T00:59:07;101809.09;;;3.37;100.00
21111;BME280;10713;51.912;4.494;2024-03-08T01:01:33;101806.50;;;3.35;100.00
21111;BME280;10713;51.912;4.494;2024-03-08T01:03:58;101796.91;;;3.34;100.00
21111;BME280;10713;51.912;4.494;2024-03-08T01:06:23;101795.13;;;3.32;100.00
21111;BME280;10713;51.912;4.494;2024-03-08T01:08:49;101793.38;;;3.28;100.00
21111;BME280;10713;51.912;4.494;2024-03-08T01:11:17;101789.06;;;3.30;100.00
21111;BME280;10713;51.912;4.494;2024-03-08T01:13:43;101789.94;;;3.30;100.00
21111;BME280;10713;51.912;4.494;2024-03-08T01:16:08;101786.41;;;3.25;100.00
21111;BME280;10713;51.912;4.494;2024-03-08T01:18:34;101784.66;;;3.26;100.00
21111;BME280;10713;51.912;4.494;2024-03-08T01:20:59;101764.66;;;3.22;100.00
21111;BME280;10713;51.912;4.494;2024-03-08T01:23:24;101783.78;;;3.22;100.00
21111;BME280;10713;51.912;4.494;2024-03-08T01:25:50;101769.84;;;3.20;100.00
21111;BME280;10713;51.912;4.494;2024-03-08T01:28:25;101758.53;;;3.20;100.00
21111;BME280;10713;51.912;4.494;2024-03-08T01:30:50;101742.00;;;3.16;100.00
21111;BME280;10713;51.912;4.494;2024-03-08T01:33:23;101755.94;;;3.15;100.00
21111;BME280;10713;51.912;4.494;2024-03-08T01:35:51;101757.66;;;3.13;100.00
21111;BME280;10713;51.912;4.494;2024-03-08T01:38:16;101742.88;;;3.12;100.00
21111;BME280;10713;51.912;4.494;2024-03-08T01:40:41;101760.22;;;3.11;100.00
21111;BME280;10713;51.912;4.494;2024-03-08T01:43:17;101753.25;;;3.09;100.00
21111;BME280;10713;51.912;4.494;2024-03-08T01:45:42;101741.13;;;3.09;100.00
21111;BME280;10713;51.912;4.494;2024-03-08T01:48:08;101748.03;;;3.07;100.00
21111;BME280;10713;51.912;4.494;2024-03-08T01:50:33;101740.19;;;3.06;100.00
21111;BME280;10713;51.912;4.494;2024-03-08T01:52:59;101740.19;;;3.03;100.00
21111;BME280;10713;51.912;4.494;2024-03-08T01:55:25;101738.47;;;3.05;100.00
21111;BME280;10713;51.912;4.494;2024-03-08T01:57:51;101740.19;;;3.03;100.00
21111;BME280;10713;51.912;4.494;2024-03-08T02:00:17;101745.41;;;3.01;100.00
21111;BME280;10713;51.912;4.494;2024-03-08T02:02:46;101739.28;;;2.96;100.00
21111;BME280;10713;51.912;4.494;2024-03-08T02:05:12;101736.66;;;2.93;100.00
21111;BME280;10713;51.912;4.494;2024-03-08T02:07:41;101744.47;;;2.91;100.00
21111;BME280;10713;51.912;4.494;2024-03-08T02:10:09;101727.06;;;2.90;100.00
21111;BME280;10713;51.912;4.494;2024-03-08T02:12:35;101715.72;;;2.85;100.00
21111;BME280;10713;51.912;4.494;2024-03-08T02:15:00;101712.25;;;2.83;100.00
21111;BME280;10713;51.912;4.494;2024-03-08T02:17:26;101719.19;;;2.81;100.00
21111;BME280;10713;51.912;4.494;2024-03-08T02:19:51;101716.56;;;2.78;100.00
21111;BME280;10713;51.912;4.494;2024-03-08T02:22:16;101715.69;;;2.78;100.00
21111;BME280;10713;51.912;4.494;2024-03-08T02:24:42;101700.91;;;2.77;100.00
21111;BME280;10713;51.912;4.494;2024-03-08T02:27:07;101693.97;;;2.80;100.00
21111;BME280;10713;51.912;4.494;2024-03-08T02:29:33;101699.16;;;2.76;100.00
21111;BME280;10713;51.912;4.494;2024-03-08T02:31:59;101698.28;;;2.72;100.00
21111;BME280;10713;51.912;4.494;2024-03-08T02:34:24;101687.84;;;2.70;100.00
21111;BME280;10713;51.912;4.494;2024-03-08T02:36:50;101692.16;;;2.68;100.00
21111;BME280;10713;51.912;4.494;2024-03-08T02:39:16;101697.34;;;2.65;100.00
21111;BME280;10713;51.912;4.494;2024-03-08T02:41:42;101696.47;;;2.65;100.00
21111;BME280;10713;51.912;4.494;2024-03-08T02:44:07;101680.81;;;2.62;100.00
21111;BME280;10713;51.912;4.494;2024-03-08T02:46:33;101678.19;;;2.60;100.00
21111;BME280;10713;51.912;4.494;2024-03-08T02:48:59;101691.22;;;2.56;100.00
21111;BME280;10713;51.912;4.494;2024-03-08T02:51:24;101669.50;;;2.58;100.00
21111;BME280;10713;51.912;4.494;2024-03-08T02:53:51;101679.91;;;2.57;100.00
21111;BME280;10713;51.912;4.494;2024-03-08T02:56:17;101661.66;;;2.54;100.00
21111;BME280;10713;51.912;4.494;2024-03-08T02:58:43;101658.16;;;2.53;100.00
21111;BME280;10713;51.912;4.494;2024-03-08T03:01:08;101665.09;;;2.51;100.00
21111;BME280;10713;51.912;4.494;2024-03-08T03:03:35;101659.88;;;2.46;100.00
21111;BME280;10713;51.912;4.494;2024-03-08T03:06:00;101668.56;;;2.47;100.00
21111;BME280;10713;51.912;4.494;2024-03-08T03:08:26;101651.13;;;2.43;100.00
21111;BME280;10713;51.912;4.494;2024-03-08T03:10:51;101641.56;;;2.40;100.00
21111;BME280;10713;51.912;4.494;2024-03-08T03:13:16;101652.84;;;2.39;100.00
21111;BME280;10713;51.912;4.494;2024-03-08T03:15:46;101638.06;;;2.37;100.00
21111;BME280;10713;51.912;4.494;2024-03-08T03:18:11;101639.81;;;2.36;100.00
21111;BME280;10713;51.912;4.494;2024-03-08T03:20:36;101639.78;;;2.33;100.00
21111;BME280;10713;51.912;4.494;2024-03-08T03:23:06;101624.09;;;2.29;100.00
21111;BME280;10713;51.912;4.494;2024-03-08T03:25:33;101629.31;;;2.29;100.00
21111;BME280;10713;51.912;4.494;2024-03-08T03:28:03;101635.41;;;2.28;100.00
21111;BME280;10713;51.912;4.494;2024-03-08T03:30:29;101631.03;;;2.25;100.00
21111;BME280;10713;51.912;4.494;2024-03-08T03:32:59;101624.06;;;2.22;100.00
21111;BME280;10713;51.912;4.494;2024-03-08T03:35:26;101643.16;;;2.18;100.00
21111;BME280;10713;51.912;4.494;2024-03-08T03:37:52;101621.41;;;2.16;100.00
21111;BME280;10713;51.912;4.494;2024-03-08T03:40:31;101624.03;;;2.16;100.00
21111;BME280;10713;51.912;4.494;2024-03-08T03:42:57;101615.28;;;2.11;100.00
21111;BME280;10713;51.912;4.494;2024-03-08T03:45:23;101628.28;;;2.08;100.00
21111;BME280;10713;51.912;4.494;2024-03-08T03:47:48;101617.03;;;2.09;100.00
21111;BME280;10713;51.912;4.494;2024-03-08T03:50:14;101617.00;;;2.06;100.00
21111;BME280;10713;51.912;4.494;2024-03-08T03:52:39;101620.47;;;2.08;100.00
21111;BME280;10713;51.912;4.494;2024-03-08T03:55:05;101621.31;;;2.06;100.00
21111;BME280;10713;51.912;4.494;2024-03-08T03:57:31;101605.69;;;2.01;100.00
21111;BME280;10713;51.912;4.494;2024-03-08T03:59:56;101609.13;;;1.98;100.00
21111;BME280;10713;51.912;4.494;2024-03-08T04:02:24;101615.19;;;1.97;100.00
21111;BME280;10713;51.912;4.494;2024-03-08T04:04:52;101617.78;;;1.97;100.00
21111;BME280;10713;51.912;4.494;2024-03-08T04:07:17;101616.88;;;1.94;100.00
21111;BME280;10713;51.912;4.494;2024-03-08T04:09:42;101603.84;;;1.89;100.00
21111;BME280;10713;51.912;4.494;2024-03-08T04:12:08;101601.22;;;1.88;100.00
21111;BME280;10713;51.912;4.494;2024-03-08T04:14:35;101582.97;;;1.85;100.00
21111;BME280;10713;51.912;4.494;2024-03-08T04:17:00;101593.38;;;1.85;100.00
21111;BME280;10713;51.912;4.494;2024-03-08T04:19:26;101569.94;;;1.83;100.00
21111;BME280;10713;51.912;4.494;2024-03-08T04:21:51;101597.69;;;1.83;100.00
21111;BME280;10713;51.912;4.494;2024-03-08T04:24:17;101578.63;;;1.80;100.00
21111;BME280;10713;51.912;4.494;2024-03-08T04:26:42;101592.44;;;1.76;100.00
21111;BME280;10713;51.912;4.494;2024-03-08T04:29:07;101585.47;;;1.72;100.00
21111;BME280;10713;51.912;4.494;2024-03-08T04:31:33;101583.72;;;1.71;100.00
21111;BME280;10713;51.912;4.494;2024-03-08T04:33:58;101582.00;;;1.72;100.00
21111;BME280;10713;51.912;4.494;2024-03-08T04:36:24;101594.97;;;1.69;100.00
21111;BME280;10713;51.912;4.494;2024-03-08T04:38:50;101587.16;;;1.67;100.00
21111;BME280;10713;51.912;4.494;2024-03-08T04:41:16;101599.28;;;1.64;100.00
21111;BME280;10713;51.912;4.494;2024-03-08T04:43:42;101580.19;;;1.65;100.00
21111;BME280;10713;51.912;4.494;2024-03-08T04:46:07;101588.84;;;1.62;100.00
21111;BME280;10713;51.912;4.494;2024-03-08T04:48:33;101581.91;;;1.63;100.00
21111;BME280;10713;51.912;4.494;2024-03-08T04:51:02;101568.91;;;1.61;100.00
21111;BME280;10713;51.912;4.494;2024-03-08T04:53:28;101565.41;;;1.57;100.00
21111;BME280;10713;51.912;4.494;2024-03-08T04:55:54;101567.06;;;1.54;100.00
21111;BME280;10713;51.912;4.494;2024-03-08T04:58:20;101565.31;;;1.50;100.00
21111;BME280;10713;51.912;4.494;2024-03-08T05:00:46;101561.84;;;1.49;100.00
21111;BME280;10713;51.912;4.494;2024-03-08T05:03:11;101567.03;;;1.48;100.00
21111;BME280;10713;51.912;4.494;2024-03-08T05:05:36;101560.09;;;1.47;100.00
21111;BME280;10713;51.912;4.494;2024-03-08T05:08:02;101556.59;;;1.45;100.00
21111;BME280;10713;51.912;4.494;2024-03-08T05:10:28;101567.84;;;1.42;100.00
21111;BME280;10713;51.912;4.494;2024-03-08T05:12:53;101560.03;;;1.42;100.00
21111;BME280;10713;51.912;4.494;2024-03-08T05:15:18;101560.03;;;1.42;100.00
21111;BME280;10713;51.912;4.494;2024-03-08T05:17:45;101564.38;;;1.42;100.00
21111;BME280;10713;51.912;4.494;2024-03-08T05:20:11;101552.19;;;1.38;100.00
21111;BME280;10713;51.912;4.494;2024-03-08T05:22:38;101549.56;;;1.36;100.00
21111;BME280;10713;51.912;4.494;2024-03-08T05:25:06;101546.97;;;1.34;100.00
21111;BME280;10713;51.912;4.494;2024-03-08T05:27:34;101553.03;;;1.35;100.00
21111;BME280;10713;51.912;4.494;2024-03-08T05:29:59;101535.63;;;1.31;100.00
21111;BME280;10713;51.912;4.494;2024-03-08T05:32:25;101547.81;;;1.32;100.00
21111;BME280;10713;51.912;4.494;2024-03-08T05:34:51;101555.59;;;1.30;100.00
21111;BME280;10713;51.912;4.494;2024-03-08T05:37:17;101555.59;;;1.30;100.00
21111;BME280;10713;51.912;4.494;2024-03-08T05:39:42;101551.25;;;1.31;100.00
21111;BME280;10713;51.912;4.494;2024-03-08T05:42:09;101553.84;;;1.29;100.00
21111;BME280;10713;51.912;4.494;2024-03-08T05:44:35;101548.63;;;1.28;100.00
21111;BME280;10713;51.912;4.494;2024-03-08T05:47:00;101543.41;;;1.28;100.00
21111;BME280;10713;51.912;4.494;2024-03-08T05:49:26;101545.13;;;1.26;100.00
21111;BME280;10713;51.912;4.494;2024-03-08T05:51:51;101534.75;;;1.27;100.00
21111;BME280;10713;51.912;4.494;2024-03-08T05:54:17;101539.03;;;1.25;100.00
21111;BME280;10713;51.912;4.494;2024-03-08T05:56:42;101526.06;;;1.27;100.00
21111;BME280;10713;51.912;4.494;2024-03-08T05:59:08;101537.38;;;1.29;100.00
21111;BME280;10713;51.912;4.494;2024-03-08T06:01:34;101524.34;;;1.27;100.00
21111;BME280;10713;51.912;4.494;2024-03-08T06:04:02;101532.09;;;1.26;100.00
21111;BME280;10713;51.912;4.494;2024-03-08T06:06:28;101526.91;;;1.24;100.00
21111;BME280;10713;51.912;4.494;2024-03-08T06:08:54;101545.13;;;1.24;100.00
21111;BME280;10713;51.912;4.494;2024-03-08T06:11:22;101524.28;;;1.21;100.00
21111;BME280;10713;51.912;4.494;2024-03-08T06:13:47;101527.78;;;1.23;100.00
21111;BME280;10713;51.912;4.494;2024-03-08T06:16:13;101529.50;;;1.24;100.00
21111;BME280;10713;51.912;4.494;2024-03-08T06:18:38;101516.53;;;1.27;100.00
21111;BME280;10713;51.912;4.494;2024-03-08T06:21:07;101514.84;;;1.29;100.00
21111;BME280;10713;51.912;4.494;2024-03-08T06:23:39;101532.19;;;1.32;100.00
21111;BME280;10713;51.912;4.494;2024-03-08T06:26:05;101520.06;;;1.34;100.00
21111;BME280;10713;51.912;4.494;2024-03-08T06:28:30;101511.47;;;1.41;100.00
21111;BME280;10713;51.912;4.494;2024-03-08T06:30:58;101508.97;;;1.56;100.00
21111;BME280;10713;51.912;4.494;2024-03-08T06:33:23;101499.59;;;1.72;100.00
21111;BME280;10713;51.912;4.494;2024-03-08T06:35:48;101493.59;;;1.86;100.00
21111;BME280;10713;51.912;4.494;2024-03-08T06:38:14;101503.22;;;1.99;100.00
21111;BME280;10713;51.912;4.494;2024-03-08T06:40:40;101497.28;;;2.20;100.00
21111;BME280;10713;51.912;4.494;2024-03-08T06:43:06;101487.78;;;2.34;100.00
21111;BME280;10713;51.912;4.494;2024-03-08T06:45:32;101487.03;;;2.49;100.00
21111;BME280;10713;51.912;4.494;2024-03-08T06:47:57;101477.53;;;2.63;100.00
21111;BME280;10713;51.912;4.494;2024-03-08T06:50:23;101473.22;;;2.81;100.00
21111;BME280;10713;51.912;4.494;2024-03-08T06:52:48;101481.09;;;3.11;100.00
21111;BME280;10713;51.912;4.494;2024-03-08T06:55:19;101468.94;;;3.29;100.00
21111;BME280;10713;51.912;4.494;2024-03-08T06:57:44;101458.53;;;3.44;100.00
21111;BME280;10713;51.912;4.494;2024-03-08T07:00:10;101462.84;;;3.60;100.00
21111;BME280;10713;51.912;4.494;2024-03-08T07:02:43;101454.16;;;3.78;100.00
21111;BME280;10713;51.912;4.494;2024-03-08T07:05:10;101458.44;;;4.02;100.00
21111;BME280;10713;51.912;4.494;2024-03-08T07:07:37;101453.94;;;4.44;100.00
21111;BME280;10713;51.912;4.494;2024-03-08T07:10:03;101453.84;;;4.63;100.00
21111;BME280;10713;51.912;4.494;2024-03-08T07:12:28;101444.22;;;4.72;100.00
21111;BME280;10713;51.912;4.494;2024-03-08T07:14:53;101442.41;;;4.85;100.00
21111;BME280;10713;51.912;4.494;2024-03-08T07:17:19;101443.22;;;4.93;100.00
21111;BME280;10713;51.912;4.494;2024-03-08T07:19:45;101456.16;;;5.12;100.00
21111;BME280;10713;51.912;4.494;2024-03-08T07:22:10;101438.66;;;5.25;100.00
21111;BME280;10713;51.912;4.494;2024-03-08T07:24:36;101431.59;;;5.31;100.00
21111;BME280;10713;51.912;4.494;2024-03-08T07:27:03;101420.19;;;5.40;100.00
21111;BME280;10713;51.912;4.494;2024-03-08T07:29:32;101432.25;;;5.61;100.00
21111;BME280;10713;51.912;4.494;2024-03-08T07:31:59;101431.31;;;5.65;100.00
21111;BME280;10713;51.912;4.494;2024-03-08T07:34:43;101415.50;;;5.76;100.00
21111;BME280;10713;51.912;4.494;2024-03-08T07:37:08;101419.69;;;5.94;100.00
21111;BME280;10713;51.912;4.494;2024-03-08T07:39:37;101413.47;;;6.04;100.00
21111;BME280;10713;51.912;4.494;2024-03-08T07:42:04;101416.03;;;6.08;100.00
21111;BME280;10713;51.912;4.494;2024-03-08T07:44:29;101417.88;;;6.02;100.00
21111;BME280;10713;51.912;4.494;2024-03-08T07:46:56;101409.16;;;6.00;100.00
21111;BME280;10713;51.912;4.494;2024-03-08T07:49:21;101403.59;;;6.26;100.00
21111;BME280;10713;51.912;4.494;2024-03-08T07:51:46;101414.41;;;6.66;100.00
21111;BME280;10713;51.912;4.494;2024-03-08T07:54:12;101406.63;;;6.62;100.00
21111;BME280;10713;51.912;4.494;2024-03-08T07:56:38;101411.13;;;6.52;100.00
21111;BME280;10713;51.912;4.494;2024-03-08T07:59:03;101398.84;;;6.56;100.00
21111;BME280;10713;51.912;4.494;2024-03-08T08:01:29;101414.50;;;6.62;100.00
21111;BME280;10713;51.912;4.494;2024-03-08T08:03:56;101387.28;;;6.69;100.00
21111;BME280;10713;51.912;4.494;2024-03-08T08:06:22;101399.28;;;6.84;100.00
21111;BME280;10713;51.912;4.494;2024-03-08T08:08:47;101393.84;;;6.99;100.00
21111;BME280;10713;51.912;4.494;2024-03-08T08:11:12;101387.69;;;7.00;100.00
21111;BME280;10713;51.912;4.494;2024-03-08T08:13:38;101388.47;;;7.05;100.00
21111;BME280;10713;51.912;4.494;2024-03-08T08:16:04;101384.19;;;6.99;100.00
21111;BME280;10713;51.912;4.494;2024-03-08T08:18:31;101385.84;;;7.05;100.00
21111;BME280;10713;51.912;4.494;2024-03-08T08:20:58;101372.28;;;7.33;100.00
21111;BME280;10713;51.912;4.494;2024-03-08T08:23:25;101365.72;;;7.57;100.00
21111;BME280;10713;51.912;4.494;2024-03-08T08:25:51;101364.66;;;7.65;100.00
21111;BME280;10713;51.912;4.494;2024-03-08T08:28:17;101371.66;;;7.66;100.00
21111;BME280;10713;51.912;4.494;2024-03-08T08:30:45;101371.63;;;7.68;100.00
21111;BME280;10713;51.912;4.494;2024-03-08T08:33:11;101353.59;;;7.95;100.00
21111;BME280;10713;51.912;4.494;2024-03-08T08:35:39;101341.78;;;8.14;100.00
21111;BME280;10713;51.912;4.494;2024-03-08T08:38:05;101369.94;;;8.09;100.00
21111;BME280;10713;51.912;4.494;2024-03-08T08:40:30;101343.06;;;7.95;100.00
21111;BME280;10713;51.912;4.494;2024-03-08T08:42:57;101339.91;;;7.79;100.00
21111;BME280;10713;51.912;4.494;2024-03-08T08:45:23;101331.75;;;7.91;100.00
21111;BME280;10713;51.912;4.494;2024-03-08T08:47:49;101341.44;;;7.89;100.00
21111;BME280;10713;51.912;4.494;2024-03-08T08:50:17;101327.34;;;8.33;100.00
21111;BME280;10713;51.912;4.494;2024-03-08T08:52:48;101324.41;;;8.49;100.00
21111;BME280;10713;51.912;4.494;2024-03-08T08:55:14;101358.44;;;8.56;100.00
21111;BME280;10713;51.912;4.494;2024-03-08T08:57:42;101338.00;;;8.68;100.00
21111;BME280;10713;51.912;4.494;2024-03-08T09:00:08;101336.13;;;8.73;100.00
21111;BME280;10713;51.912;4.494;2024-03-08T09:02:36;101328.56;;;8.95;100.00
21111;BME280;10713;51.912;4.494;2024-03-08T09:05:03;101296.94;;;8.96;100.00
21111;BME280;10713;51.912;4.494;2024-03-08T09:07:28;101298.78;;;8.93;100.00
21111;BME280;10713;51.912;4.494;2024-03-08T09:09:54;101327.09;;;9.19;100.00
21111;BME280;10713;51.912;4.494;2024-03-08T09:12:24;101334.47;;;8.69;100.00
21111;BME280;10713;51.912;4.494;2024-03-08T09:14:49;101294.00;;;8.34;100.00
21111;BME280;10713;51.912;4.494;2024-03-08T09:17:15;101328.66;;;8.54;100.00
21111;BME280;10713;51.912;4.494;2024-03-08T09:19:48;101298.78;;;8.55;100.00
21111;BME280;10713;51.912;4.494;2024-03-08T09:22:13;101307.22;;;8.70;100.00
21111;BME280;10713;51.912;4.494;2024-03-08T09:24:39;101295.28;;;8.56;100.00
21111;BME280;10713;51.912;4.494;2024-03-08T09:27:05;101313.69;;;8.56;100.00
21111;BME280;10713;51.912;4.494;2024-03-08T09:29:30;101273.25;;;8.61;100.00
21111;BME280;10713;51.912;4.494;2024-03-08T09:31:55;101297.31;;;8.81;100.00
21111;BME280;10713;51.912;4.494;2024-03-08T09:34:21;101290.94;;;8.90;100.00
21111;BME280;10713;51.912;4.494;2024-03-08T09:36:46;101283.63;;;9.01;100.00
21111;BME280;10713;51.912;4.494;2024-03-08T09:39:12;101270.44;;;9.02;100.00
21111;BME280;10713;51.912;4.494;2024-03-08T09:41:45;101266.19;;;8.97;100.00
21111;BME280;10713;51.912;4.494;2024-03-08T09:44:13;101275.09;;;8.93;100.00
21111;BME280;10713;51.912;4.494;2024-03-08T09:46:39;101239.91;;;8.95;100.00
21111;BME280;10713;51.912;4.494;2024-03-08T09:49:05;101242.63;;;9.25;100.00
21111;BME280;10713;51.912;4.494;2024-03-08T09:51:33;101237.94;;;9.03;98.65
21111;BME280;10713;51.912;4.494;2024-03-08T09:54:00;101230.53;;;9.18;100.00
21111;BME280;10713;51.912;4.494;2024-03-08T09:56:25;101236.53;;;9.23;100.00
21111;BME280;10713;51.912;4.494;2024-03-08T09:58:52;101213.47;;;9.62;99.70
21111;BME280;10713;51.912;4.494;2024-03-08T10:01:50;101214.66;;;9.82;94.78
21111;BME280;10713;51.912;4.494;2024-03-08T10:04:17;101217.97;;;9.88;92.46
21111;BME280;10713;51.912;4.494;2024-03-08T10:06:43;101204.34;;;9.73;89.73
21111;BME280;10713;51.912;4.494;2024-03-08T10:09:09;101178.19;;;9.37;95.31
21111;BME280;10713;51.912;4.494;2024-03-08T10:11:35;101187.13;;;9.90;95.60
21111;BME280;10713;51.912;4.494;2024-03-08T10:14:01;101188.97;;;10.17;91.86
21111;BME280;10713;51.912;4.494;2024-03-08T10:16:29;101181.19;;;10.40;90.23
21111;BME280;10713;51.912;4.494;2024-03-08T10:18:58;101192.19;;;10.53;88.23
21111;BME280;10713;51.912;4.494;2024-03-08T10:21:25;101175.59;;;10.21;83.21
21111;BME280;10713;51.912;4.494;2024-03-08T10:23:51;101164.19;;;9.92;84.08
21111;BME280;10713;51.912;4.494;2024-03-08T10:26:17;101169.16;;;10.03;86.42
21111;BME280;10713;51.912;4.494;2024-03-08T10:28:50;101157.22;;;9.91;86.98
21111;BME280;10713;51.912;4.494;2024-03-08T10:31:16;101153.09;;;10.11;88.99
21111;BME280;10713;51.912;4.494;2024-03-08T10:33:42;101140.88;;;10.35;85.20
21111;BME280;10713;51.912;4.494;2024-03-08T10:36:08;101141.06;;;10.55;86.92
21111;BME280;10713;51.912;4.494;2024-03-08T10:38:37;101137.44;;;10.58;82.44
21111;BME280;10713;51.912;4.494;2024-03-08T10:41:07;101121.34;;;10.41;84.13
21111;BME280;10713;51.912;4.494;2024-03-08T10:44:03;101137.50;;;10.31;82.61
21111;BME280;10713;51.912;4.494;2024-03-08T10:47:00;101136.91;;;10.22;83.31
21111;BME280;10713;51.912;4.494;2024-03-08T10:49:37;101107.94;;;10.20;84.86
21111;BME280;10713;51.912;4.494;2024-03-08T10:52:05;101121.78;;;10.27;85.83
21111;BME280;10713;51.912;4.494;2024-03-08T10:54:33;101109.19;;;10.36;85.63
21111;BME280;10713;51.912;4.494;2024-03-08T10:57:01;101115.44;;;10.32;84.72
21111;BME280;10713;51.912;4.494;2024-03-08T10:59:29;101098.06;;;10.52;85.13
21111;BME280;10713;51.912;4.494;2024-03-08T11:01:55;101102.00;;;10.40;83.52
21111;BME280;10713;51.912;4.494;2024-03-08T11:04:20;101092.00;;;10.23;85.55
21111;BME280;10713;51.912;4.494;2024-03-08T11:06:50;101092.44;;;10.09;84.63
21111;BME280;10713;51.912;4.494;2024-03-08T11:09:31;101079.78;;;9.94;84.46
21111;BME280;10713;51.912;4.494;2024-03-08T11:12:25;101090.41;;;9.64;89.02
21111;BME280;10713;51.912;4.494;2024-03-08T11:14:53;101070.94;;;9.68;89.64
21111;BME280;10713;51.912;4.494;2024-03-08T11:19:55;101071.13;;;9.62;91.64
21111;BME280;10713;51.912;4.494;2024-03-08T11:22:32;101077.06;;;9.69;93.90
21111;BME280;10713;51.912;4.494;2024-03-08T11:25:01;101072.00;;;9.63;94.35
21111;BME280;10713;51.912;4.494;2024-03-08T11:27:30;101066.06;;;9.56;98.58
21111;BME280;10713;51.912;4.494;2024-03-08T11:30:21;101050.34;;;9.25;98.87
21111;BME280;10713;51.912;4.494;2024-03-08T11:32:50;101050.94;;;9.05;100.00
21111;BME280;10713;51.912;4.494;2024-03-08T11:35:20;101063.75;;;8.86;100.00
21111;BME280;10713;51.912;4.494;2024-03-08T11:37:46;101053.28;;;8.85;100.00
21111;BME280;10713;51.912;4.494;2024-03-08T11:40:13;101036.69;;;8.81;100.00
21111;BME280;10713;51.912;4.494;2024-03-08T11:42:44;101045.41;;;8.83;100.00
21111;BME280;10713;51.912;4.494;2024-03-08T11:45:09;101039.88;;;8.92;100.00
21111;BME280;10713;51.912;4.494;2024-03-08T11:47:37;101045.13;;;8.94;100.00
21111;BME280;10713;51.912;4.494;2024-03-08T11:50:06;101031.38;;;9.12;100.00
21111;BME280;10713;51.912;4.494;2024-03-08T11:52:36;101035.50;;;8.93;100.00
21111;BME280;10713;51.912;4.494;2024-03-08T11:55:01;101034.34;;;8.72;100.00
21111;BME280;10713;51.912;4.494;2024-03-08T11:57:27;101017.91;;;8.64;100.00
21111;BME280;10713;51.912;4.494;2024-03-08T11:59:54;101017.69;;;8.71;100.00
21111;BME280;10713;51.912;4.494;2024-03-08T12:02:22;101028.84;;;8.48;100.00
21111;BME280;10713;51.912;4.494;2024-03-08T12:04:55;101008.72;;;8.47;100.00
21111;BME280;10713;51.912;4.494;2024-03-08T12:07:21;101026.44;;;8.41;100.00
21111;BME280;10713;51.912;4.494;2024-03-08T12:12:45;100998.28;;;8.44;100.00
21111;BME280;10713;51.912;4.494;2024-03-08T12:15:12;101023.34;;;8.57;100.00
21111;BME280;10713;51.912;4.494;2024-03-08T12:17:38;101028.56;;;8.59;100.00
21111;BME280;10713;51.912;4.494;2024-03-08T12:20:33;100996.81;;;8.65;100.00
21111;BME280;10713;51.912;4.494;2024-03-08T12:22:59;101001.03;;;8.71;100.00
21111;BME280;10713;51.912;4.494;2024-03-08T12:25:30;100969.41;;;8.72;100.00
21111;BME280;10713;51.912;4.494;2024-03-08T12:27:56;100973.53;;;8.81;100.00
21111;BME280;10713;51.912;4.494;2024-03-08T12:30:24;100956.66;;;8.88;100.00
21111;BME280;10713;51.912;4.494;2024-03-08T12:32:56;100959.16;;;8.93;100.00
21111;BME280;10713;51.912;4.494;2024-03-08T12:35:23;101008.94;;;9.00;100.00
21111;BME280;10713;51.912;4.494;2024-03-08T12:37:54;100968.78;;;8.92;98.29
21111;BME280;10713;51.912;4.494;2024-03-08T12:40:26;100961.81;;;8.91;95.70
21111;BME280;10713;51.912;4.494;2024-03-08T12:42:52;100960.53;;;9.05;95.24
21111;BME280;10713;51.912;4.494;2024-03-08T12:45:18;100971.31;;;8.97;92.92
21111;BME280;10713;51.912;4.494;2024-03-08T12:47:43;100959.16;;;8.93;91.55
21111;BME280;10713;51.912;4.494;2024-03-08T12:50:10;100997.72;;;8.94;92.89
21111;BME280;10713;51.912;4.494;2024-03-08T12:52:36;100961.78;;;8.93;94.66
21111;BME280;10713;51.912;4.494;2024-03-08T12:55:02;100939.59;;;9.00;96.27